createdAt,value
2018-10-02T00:00:12.459Z,7.00
2018-10-02T00:05:15.444Z,7.30
2018-10-02T00:10:18.447Z,7.20
2018-10-02T00:15:21.487Z,7.10
2018-10-02T00:20:24.479Z,7.20
2018-10-02T00:25:27.459Z,7.40
2018-10-02T00:30:30.439Z,7.30
2018-10-02T00:35:33.439Z,7.50
2018-10-02T00:40:36.473Z,7.40
2018-10-02T00:45:39.583Z,7.20
2018-10-02T00:50:42.963Z,7.00
2018-10-02T00:55:45.987Z,6.90
2018-10-02T01:00:48.970Z,6.90
2018-10-02T01:05:52.039Z,6.80
2018-10-02T01:10:55.007Z,6.70
2018-10-02T01:15:58.001Z,6.60
2018-10-02T01:21:03.192Z,6.60
2018-10-02T01:26:06.207Z,6.60
2018-10-02T01:31:09.188Z,6.40
2018-10-02T01:36:12.240Z,6.30
2018-10-02T01:41:15.210Z,6.30
2018-10-02T01:46:18.161Z,6.00
2018-10-02T01:51:21.160Z,5.80
2018-10-02T01:56:24.104Z,5.70
2018-10-02T02:01:27.101Z,5.50
2018-10-02T02:06:30.078Z,5.50
2018-10-02T02:11:33.142Z,5.40
2018-10-02T02:16:36.516Z,5.50
2018-10-02T02:21:39.511Z,5.60
2018-10-02T02:26:42.547Z,5.60
2018-10-02T02:31:45.575Z,5.60
2018-10-02T02:36:48.549Z,5.70
2018-10-02T02:41:51.515Z,6.00
2018-10-02T02:46:58.540Z,6.10
2018-10-02T02:52:02.834Z,6.40
2018-10-02T02:57:06.228Z,6.40
2018-10-02T03:02:09.332Z,6.50
2018-10-02T03:07:12.306Z,6.70
2018-10-02T03:12:15.305Z,6.90
2018-10-02T03:17:18.311Z,7.10
2018-10-02T03:22:21.494Z,7.20
2018-10-02T03:27:24.464Z,7.30
2018-10-02T03:32:27.402Z,7.40
2018-10-02T03:37:30.319Z,7.40
2018-10-02T03:42:33.261Z,7.10
2018-10-02T03:47:36.185Z,7.00
2018-10-02T03:52:39.236Z,7.00
2018-10-02T03:57:42.205Z,7.00
2018-10-02T04:02:45.230Z,7.10
2018-10-02T04:07:48.426Z,7.20
2018-10-02T04:12:51.532Z,7.20
2018-10-02T04:17:54.504Z,7.30
2018-10-02T04:22:57.567Z,7.20
2018-10-02T04:28:03.384Z,7.20
2018-10-02T04:33:06.740Z,7.20
2018-10-02T04:38:09.737Z,7.10
2018-10-02T04:43:12.875Z,7.10
2018-10-02T04:48:15.861Z,7.10
2018-10-02T04:53:19.421Z,7.10
2018-10-02T04:58:22.421Z,7.10
2018-10-02T05:03:25.999Z,7.30
2018-10-02T05:08:29.368Z,7.40
2018-10-02T05:13:32.299Z,7.50
2018-10-02T05:18:35.437Z,7.60
2018-10-02T05:23:38.398Z,7.60
2018-10-02T05:28:41.351Z,7.60
2018-10-02T05:33:44.336Z,7.60
2018-10-02T05:38:47.823Z,7.60
2018-10-02T05:43:50.806Z,7.70
2018-10-02T05:48:53.838Z,7.70
2018-10-02T05:53:56.885Z,7.80
2018-10-02T05:59:03.056Z,7.90
2018-10-02T06:04:06.570Z,7.90
2018-10-02T06:09:11.226Z,8.00
2018-10-02T06:14:14.199Z,8.10
2018-10-02T06:19:17.175Z,8.30
2018-10-02T06:24:20.154Z,8.40
2018-10-02T06:29:23.310Z,8.40
2018-10-02T06:34:26.251Z,8.30
2018-10-02T06:39:30.572Z,8.40
2018-10-02T06:44:33.816Z,8.30
2018-10-02T06:49:36.777Z,8.30
2018-10-02T06:54:39.745Z,8.30
2018-10-02T06:59:42.700Z,8.40
2018-10-02T07:04:46.009Z,8.40
2018-10-02T07:09:49.111Z,8.10
2018-10-02T07:14:52.165Z,8.10
2018-10-02T07:19:55.152Z,8.40
2018-10-02T07:24:58.160Z,8.70
2018-10-02T07:30:03.622Z,9.00
2018-10-02T07:35:06.848Z,9.00
2018-10-02T07:40:10.599Z,8.90
2018-10-02T07:45:13.557Z,8.90
2018-10-02T07:50:17.107Z,8.90
2018-10-02T07:55:20.240Z,8.90
2018-10-02T08:00:23.343Z,9.10
2018-10-02T08:05:26.504Z,9.30
2018-10-02T08:10:29.607Z,9.60
2018-10-02T08:15:32.642Z,9.70
2018-10-02T08:20:35.735Z,9.80
2018-10-02T08:25:44.224Z,10.00
2018-10-02T08:30:47.330Z,9.90
2018-10-02T08:35:50.597Z,9.70
2018-10-02T08:40:53.487Z,9.50
2018-10-02T08:45:56.565Z,9.50
2018-10-02T08:50:59.656Z,9.60
2018-10-02T08:56:03.222Z,9.70
2018-10-02T09:01:07.277Z,9.60
2018-10-02T09:06:10.309Z,9.50
2018-10-02T09:11:13.377Z,9.70
2018-10-02T09:16:16.447Z,9.70
2018-10-02T09:21:19.577Z,9.80
2018-10-02T09:26:22.568Z,9.90
2018-10-02T09:31:31.452Z,9.80
2018-10-02T09:36:40.202Z,9.80
2018-10-02T09:41:48.997Z,9.80
2018-10-02T09:46:52.487Z,9.70
2018-10-02T09:51:55.651Z,9.70
2018-10-02T09:56:58.620Z,9.80
2018-10-02T10:02:08.578Z,9.80
2018-10-02T10:07:11.667Z,9.80
2018-10-02T10:12:15.552Z,9.80
2018-10-02T10:17:18.618Z,10.20
2018-10-02T10:22:21.550Z,10.30
2018-10-02T10:27:24.628Z,10.40
2018-10-02T10:32:27.722Z,10.60
2018-10-02T10:37:30.726Z,10.40
2018-10-02T10:42:33.984Z,10.00
2018-10-02T10:47:37.023Z,9.90
2018-10-02T10:52:40.206Z,10.00
2018-10-02T10:57:43.238Z,10.00
2018-10-02T11:02:46.463Z,10.00
2018-10-02T11:07:49.503Z,10.10
2018-10-02T11:12:52.591Z,10.10
2018-10-02T11:17:55.624Z,10.20
2018-10-02T11:22:58.636Z,9.90
2018-10-02T11:28:02.805Z,9.80
2018-10-02T11:33:06.377Z,9.50
2018-10-02T11:38:09.563Z,9.10
2018-10-02T11:43:12.736Z,9.00
2018-10-02T11:48:15.812Z,9.00
2018-10-02T11:53:18.880Z,9.20
2018-10-02T11:58:21.862Z,9.30
2018-10-02T12:03:24.977Z,9.10
2018-10-02T12:08:28.154Z,9.00
2018-10-02T12:13:31.129Z,9.10
2018-10-02T12:18:34.147Z,9.30
2018-10-02T12:23:37.307Z,9.10
2018-10-02T12:28:40.312Z,9.20
2018-10-02T12:33:43.543Z,9.10
2018-10-02T12:38:46.592Z,9.20
2018-10-02T12:43:49.832Z,9.20
2018-10-02T12:48:53.049Z,9.30
2018-10-02T12:53:56.248Z,9.40
2018-10-02T12:58:59.377Z,9.30
2018-10-02T13:04:03.443Z,9.40
2018-10-02T13:09:07.984Z,9.40
2018-10-02T13:14:11.053Z,9.50
2018-10-02T13:19:14.136Z,9.50
2018-10-02T13:24:17.131Z,9.40
2018-10-02T13:29:20.148Z,9.50
2018-10-02T13:34:23.231Z,9.40
2018-10-02T13:39:26.390Z,9.40
2018-10-02T13:44:29.409Z,9.30
2018-10-02T13:49:32.423Z,9.30
2018-10-02T13:54:35.484Z,9.40
2018-10-02T13:59:38.537Z,9.30
2018-10-02T14:04:41.819Z,9.30
2018-10-02T14:09:44.936Z,9.40
2018-10-02T14:14:48.000Z,9.50
2018-10-02T14:19:50.974Z,9.60
2018-10-02T14:24:54.756Z,9.60
2018-10-02T14:29:58.076Z,9.70
2018-10-02T14:35:03.699Z,9.70
2018-10-02T14:40:06.781Z,9.80
2018-10-02T14:45:10.015Z,9.80
2018-10-02T14:50:13.152Z,9.90
2018-10-02T14:55:16.212Z,9.90
2018-10-02T15:00:19.247Z,9.90
2018-10-02T15:05:22.376Z,9.90
2018-10-02T15:10:25.452Z,9.90
2018-10-02T15:15:28.503Z,9.80
2018-10-02T15:20:31.528Z,9.70
2018-10-02T15:25:34.601Z,9.80
2018-10-02T15:30:37.695Z,9.90
2018-10-02T15:35:40.706Z,9.90
2018-10-02T15:40:43.812Z,10.00
2018-10-02T15:45:46.909Z,10.10
2018-10-02T15:50:50.096Z,10.20
2018-10-02T15:55:53.100Z,10.00
2018-10-02T16:00:56.317Z,10.10
2018-10-02T16:05:59.290Z,10.00
2018-10-02T16:11:03.487Z,10.10
2018-10-02T16:16:06.992Z,10.20
2018-10-02T16:21:10.097Z,10.20
2018-10-02T16:26:13.266Z,10.30
2018-10-02T16:31:16.257Z,10.30
2018-10-02T16:36:19.293Z,10.40
2018-10-02T16:41:22.406Z,10.40
2018-10-02T16:46:25.642Z,10.40
2018-10-02T16:51:28.823Z,10.50
2018-10-02T16:56:32.071Z,10.50
2018-10-02T17:01:35.218Z,10.50
2018-10-02T17:06:38.531Z,10.40
2018-10-02T17:11:41.572Z,10.40
2018-10-02T17:16:44.792Z,10.50
2018-10-02T17:21:47.688Z,10.50
2018-10-02T17:26:50.622Z,10.50
2018-10-02T17:31:53.701Z,10.60
2018-10-02T17:36:56.748Z,10.60
2018-10-02T17:42:00.149Z,10.60
2018-10-02T17:47:03.931Z,10.60
2018-10-02T17:52:07.221Z,10.60
2018-10-02T17:57:10.190Z,10.50
2018-10-02T18:02:13.239Z,10.50
2018-10-02T18:07:16.280Z,10.50
2018-10-02T18:12:19.428Z,10.50
2018-10-02T18:17:22.524Z,10.50
2018-10-02T18:22:25.596Z,10.60
2018-10-02T18:27:28.763Z,10.70
2018-10-02T18:32:31.905Z,10.70
2018-10-02T18:37:35.618Z,10.70
2018-10-02T18:42:38.643Z,10.70
2018-10-02T18:47:41.751Z,10.80
2018-10-02T18:52:45.890Z,10.90
2018-10-02T18:57:48.965Z,10.90
2018-10-02T19:02:52.007Z,10.80
2018-10-02T19:07:55.115Z,10.70
2018-10-02T19:12:58.275Z,10.70
2018-10-02T19:18:02.392Z,10.70
2018-10-02T19:23:05.606Z,10.70
2018-10-02T19:28:08.911Z,10.60
2018-10-02T19:33:12.103Z,10.50
2018-10-02T19:38:21.101Z,10.50
2018-10-02T19:43:24.419Z,10.60
2018-10-02T19:48:27.525Z,10.50
2018-10-02T19:53:30.667Z,10.50
2018-10-02T19:58:33.848Z,10.50
2018-10-02T20:03:37.080Z,10.60
2018-10-02T20:08:40.267Z,10.50
2018-10-02T20:13:43.363Z,10.50
2018-10-02T20:18:46.451Z,10.50
2018-10-02T20:23:49.631Z,10.60
2018-10-02T20:28:52.701Z,10.70
2018-10-02T20:33:55.780Z,10.60
2018-10-02T20:38:59.024Z,10.60
2018-10-02T20:44:02.985Z,10.60
2018-10-02T20:49:06.333Z,10.60
2018-10-02T20:54:09.321Z,10.70
2018-10-02T20:59:12.429Z,10.70
2018-10-02T21:04:15.517Z,10.70
2018-10-02T21:09:18.580Z,10.70
2018-10-02T21:14:21.795Z,10.60
2018-10-02T21:19:24.900Z,10.50
2018-10-02T21:24:28.573Z,10.50
2018-10-02T21:29:31.682Z,10.40
2018-10-02T21:34:34.925Z,10.50
2018-10-02T21:39:38.067Z,10.50
2018-10-02T21:44:41.140Z,10.50
2018-10-02T21:49:44.173Z,10.50
2018-10-02T21:54:47.219Z,10.50
2018-10-02T21:59:50.371Z,10.50
2018-10-02T22:04:53.402Z,10.50
2018-10-02T22:09:56.511Z,10.40
2018-10-02T22:14:59.607Z,10.60
2018-10-02T22:20:05.236Z,10.50
2018-10-02T22:25:08.279Z,10.50
2018-10-02T22:30:12.573Z,10.50
2018-10-02T22:35:15.708Z,10.50
2018-10-02T22:40:18.798Z,10.60
2018-10-02T22:45:21.805Z,10.80
2018-10-02T22:50:24.894Z,10.80
2018-10-02T22:55:28.001Z,10.90
2018-10-02T23:00:31.139Z,11.10
2018-10-02T23:05:34.232Z,11.20
2018-10-02T23:10:37.825Z,11.30
2018-10-02T23:15:41.034Z,11.20
2018-10-02T23:20:44.052Z,11.20
2018-10-02T23:25:47.015Z,11.20
2018-10-02T23:30:50.290Z,11.20
2018-10-02T23:35:53.369Z,11.10
2018-10-02T23:40:56.516Z,11.10
2018-10-02T23:45:59.588Z,11.10
2018-10-02T23:51:03.154Z,11.30
2018-10-02T23:56:06.141Z,11.30
